Time;durP1;ratioP1;P1;durP2;ratioP2;P2;SDS_P1;SDS_P2;PMS_P1;PMS_P2;Temp;Humidity;BMP_temperature;BMP_pressure;BME280_temperature;BME280_humidity;BME280_pressure;Samples;Min_cycle;Max_cycle;Signal;HPM_P1;HPM_P2
2021/08/15 00:01:58;;;;;;;2.40;2.20;;;18.50;99.90;;;;;;4984811;28;20402;-76
2021/08/15 00:04:23;;;;;;;6.70;2.40;;;18.40;99.90;;;;;;4988586;28;20393;-75
2021/08/15 00:06:49;;;;;;;2.50;2.30;;;18.40;99.90;;;;;;4969335;28;20402;-76
2021/08/15 00:09:15;;;;;;;2.40;2.20;;;18.40;99.90;;;;;;4970279;28;20980;-76
2021/08/15 00:11:40;;;;;;;2.33;2.13;;;18.30;99.90;;;;;;4974854;28;21097;-76
2021/08/15 00:14:06;;;;;;;2.20;2.08;;;18.30;99.90;;;;;;4986750;28;20454;-75
2021/08/15 00:16:32;;;;;;;2.90;2.50;;;18.30;99.90;;;;;;4968957;28;20469;-75
2021/08/15 00:19:04;;;;;;;2.20;2.10;;;18.10;99.90;;;;;;4984324;28;20408;-76
2021/08/15 00:21:33;;;;;;;2.45;2.25;;;18.20;99.90;;;;;;4967691;28;20406;-76
2021/08/15 00:23:59;;;;;;;2.38;2.17;;;18.10;99.90;;;;;;4986618;28;21130;-76
2021/08/15 00:26:25;;;;;;;2.17;2.03;;;18.10;99.90;;;;;;4986199;28;20403;-75
2021/08/15 00:28:51;;;;;;;8.47;2.40;;;18.10;99.90;;;;;;5002155;28;20415;-76
2021/08/15 00:31:17;;;;;;;3.17;2.10;;;18.00;99.90;;;;;;5014108;28;20445;-77
2021/08/15 00:33:43;;;;;;;2.47;2.27;;;18.00;99.90;;;;;;4986864;28;20404;-76
2021/08/15 00:36:08;;;;;;;2.67;2.47;;;18.00;99.90;;;;;;5001922;28;20432;-76
2021/08/15 00:38:34;;;;;;;2.00;1.90;;;18.00;99.90;;;;;;5000238;28;20454;-77
2021/08/15 00:41:00;;;;;;;2.10;1.97;;;18.00;99.90;;;;;;4996871;28;20395;-77
2021/08/15 00:43:28;;;;;;;2.45;2.13;;;17.90;99.90;;;;;;4967386;28;20406;-77
2021/08/15 00:45:54;;;;;;;2.58;2.38;;;17.90;99.90;;;;;;4973156;28;21383;-75
2021/08/15 00:48:19;;;;;;;2.40;2.20;;;17.80;99.90;;;;;;4983649;28;20398;-77
2021/08/15 00:50:45;;;;;;;2.30;2.10;;;17.80;99.90;;;;;;4967519;28;20405;-76
2021/08/15 00:53:11;;;;;;;2.23;2.03;;;17.80;99.90;;;;;;4985211;28;20387;-76
2021/08/15 00:55:37;;;;;;;2.00;1.90;;;17.70;99.90;;;;;;4968952;28;20486;-76
2021/08/15 00:58:07;;;;;;;2.45;2.25;;;17.70;99.90;;;;;;5000199;28;20419;-75
2021/08/15 01:00:36;;;;;;;2.08;1.95;;;17.70;99.90;;;;;;4968626;28;20405;-75
2021/08/15 01:03:01;;;;;;;2.47;2.20;;;17.70;99.90;;;;;;4984377;28;20835;-75
2021/08/15 01:05:28;;;;;;;2.47;2.28;;;17.70;99.90;;;;;;4966886;28;20391;-76
2021/08/15 01:07:53;;;;;;;2.10;2.00;;;17.60;99.90;;;;;;4983030;28;20438;-75
2021/08/15 01:10:19;;;;;;;2.17;1.90;;;17.60;99.90;;;;;;4952308;28;20461;-76
2021/08/15 01:12:45;;;;;;;2.25;2.05;;;17.50;99.90;;;;;;4964604;28;20395;-76
2021/08/15 01:15:11;;;;;;;1.90;1.80;;;17.40;99.90;;;;;;4983215;28;20977;-75
2021/08/15 01:17:37;;;;;;;2.20;2.00;;;17.40;99.90;;;;;;4969176;28;20405;-75
2021/08/15 01:20:03;;;;;;;1.92;1.83;;;17.30;99.90;;;;;;4970317;28;20451;-77
2021/08/15 01:22:36;;;;;;;1.92;1.80;;;17.30;99.90;;;;;;4968727;28;20403;-76
2021/08/15 01:25:05;;;;;;;2.03;1.92;;;17.20;99.90;;;;;;4983788;28;20501;-75
2021/08/15 01:27:36;;;;;;;2.20;2.10;;;17.20;99.90;;;;;;4967790;28;20427;-76
2021/08/15 01:30:02;;;;;;;1.83;1.73;;;17.20;99.90;;;;;;4984294;28;20408;-75
2021/08/15 01:32:27;;;;;;;2.38;2.17;;;17.10;99.90;;;;;;4983069;28;20413;-76
2021/08/15 01:34:54;;;;;;;2.20;2.03;;;17.10;99.90;;;;;;4983691;28;20411;-76
2021/08/15 01:37:21;;;;;;;2.40;2.20;;;17.10;99.90;;;;;;4967637;28;20402;-77
2021/08/15 01:39:47;;;;;;;2.47;2.28;;;17.10;99.90;;;;;;4979435;28;20462;-75
2021/08/15 01:42:13;;;;;;;2.20;2.00;;;17.00;99.90;;;;;;4991138;28;20398;-75
2021/08/15 01:44:38;;;;;;;2.27;2.07;;;17.00;99.90;;;;;;4969946;28;20428;-76
2021/08/15 01:47:04;;;;;;;2.40;2.20;;;17.00;99.90;;;;;;4982714;28;20403;-75
2021/08/15 01:49:29;;;;;;;2.53;2.07;;;17.00;99.90;;;;;;4985190;28;20968;-75
2021/08/15 01:51:55;;;;;;;2.17;1.98;;;17.00;99.90;;;;;;4967444;28;20402;-76
2021/08/15 01:54:21;;;;;;;3.20;2.08;;;16.90;99.90;;;;;;4968209;28;20396;-75
2021/08/15 01:56:46;;;;;;;2.40;2.20;;;16.90;99.90;;;;;;4984304;28;20388;-76
2021/08/15 01:59:12;;;;;;;2.15;2.00;;;16.90;99.90;;;;;;4995288;28;20437;-75
2021/08/15 02:01:38;;;;;;;2.30;2.10;;;16.90;99.90;;;;;;4965241;28;20434;-77
2021/08/15 02:04:04;;;;;;;2.30;2.10;;;16.90;99.90;;;;;;4985660;28;20400;-76
2021/08/15 02:06:30;;;;;;;2.00;1.90;;;16.80;99.90;;;;;;4967015;28;20400;-77
2021/08/15 02:08:55;;;;;;;2.30;2.10;;;16.90;99.90;;;;;;4989583;28;20921;-76
2021/08/15 02:11:21;;;;;;;2.40;2.20;;;16.90;99.90;;;;;;4984697;28;20813;-78
2021/08/15 02:13:47;;;;;;;2.17;1.97;;;16.80;99.90;;;;;;4982191;28;20414;-75
2021/08/15 02:16:13;;;;;;;1.90;1.80;;;16.80;99.90;;;;;;4968647;28;20426;-76
2021/08/15 02:18:39;;;;;;;2.28;2.08;;;16.80;99.90;;;;;;4967915;28;20400;-76
2021/08/15 02:21:04;;;;;;;2.20;2.00;;;16.70;99.90;;;;;;4983793;28;20403;-76
2021/08/15 02:23:30;;;;;;;2.08;1.88;;;16.70;99.90;;;;;;4970181;28;20401;-77
2021/08/15 02:25:56;;;;;;;2.40;2.05;;;16.60;99.90;;;;;;4985610;28;20399;-77
2021/08/15 02:28:21;;;;;;;2.73;1.83;;;16.50;99.90;;;;;;4987488;28;20381;-76
2021/08/15 02:30:47;;;;;;;2.88;2.20;;;16.50;99.90;;;;;;4970643;28;21455;-75
2021/08/15 02:33:13;;;;;;;2.20;2.00;;;16.50;99.90;;;;;;4964272;28;20393;-75
2021/08/15 02:35:38;;;;;;;2.72;2.47;;;16.60;99.90;;;;;;4970761;28;20392;-76
2021/08/15 02:38:04;;;;;;;2.40;2.07;;;16.60;99.90;;;;;;4967923;28;20899;-77
2021/08/15 02:40:30;;;;;;;2.03;1.93;;;16.60;99.90;;;;;;4967120;28;20390;-76
2021/08/15 02:42:55;;;;;;;2.85;2.30;;;16.50;99.90;;;;;;5003363;28;20880;-76
2021/08/15 02:45:22;;;;;;;2.50;2.30;;;16.50;99.90;;;;;;4984930;28;20382;-75
2021/08/15 02:47:48;;;;;;;2.40;2.20;;;16.40;99.90;;;;;;4973988;28;20399;-75
2021/08/15 02:50:14;;;;;;;2.10;2.00;;;16.40;99.90;;;;;;4971942;28;20947;-75
2021/08/15 02:52:40;;;;;;;2.25;2.05;;;16.40;99.90;;;;;;5005529;28;20428;-75
2021/08/15 02:55:06;;;;;;;2.38;2.10;;;16.30;99.90;;;;;;4988512;28;20910;-75
2021/08/15 02:57:32;;;;;;;2.60;2.35;;;16.30;99.90;;;;;;4970707;28;20775;-75
2021/08/15 02:59:57;;;;;;;3.37;2.13;;;16.30;99.90;;;;;;4999832;28;20401;-75
2021/08/15 03:02:23;;;;;;;2.15;2.05;;;16.30;99.90;;;;;;4985691;28;20765;-76
2021/08/15 03:04:49;;;;;;;2.15;1.98;;;16.30;99.90;;;;;;4974164;28;20397;-78
2021/08/15 03:07:15;;;;;;;2.67;2.47;;;16.30;99.90;;;;;;4986645;28;20397;-76
2021/08/15 03:09:42;;;;;;;1.98;1.88;;;16.20;99.90;;;;;;5006065;28;20476;-76
2021/08/15 03:12:08;;;;;;;1.77;1.67;;;16.20;99.90;;;;;;4986725;28;20402;-75
2021/08/15 03:14:33;;;;;;;2.27;2.07;;;16.20;99.90;;;;;;4972189;28;20902;-77
2021/08/15 03:16:59;;;;;;;1.95;1.85;;;16.10;99.90;;;;;;4985533;28;20598;-75
2021/08/15 03:19:25;;;;;;;2.30;2.03;;;16.10;99.90;;;;;;4971289;28;20402;-76
2021/08/15 03:21:50;;;;;;;2.70;1.97;;;16.00;99.90;;;;;;4973458;28;20388;-75
2021/08/15 03:24:16;;;;;;;2.40;2.08;;;15.90;99.90;;;;;;5004707;28;20918;-76
2021/08/15 03:26:44;;;;;;;2.23;2.07;;;15.90;99.90;;;;;;4988183;28;21058;-79
2021/08/15 03:29:11;;;;;;;2.20;2.00;;;15.90;99.90;;;;;;4988057;28;20410;-75
2021/08/15 03:31:36;;;;;;;2.47;2.10;;;15.90;99.90;;;;;;4969332;28;21134;-77
2021/08/15 03:34:02;;;;;;;2.33;2.13;;;15.80;99.90;;;;;;4999486;28;20444;-77
2021/08/15 03:36:28;;;;;;;2.10;2.00;;;15.80;99.90;;;;;;4987771;28;20396;-76
2021/08/15 03:38:53;;;;;;;2.20;2.00;;;15.80;99.90;;;;;;4986433;28;20611;-76
2021/08/15 03:41:19;;;;;;;1.97;1.87;;;15.80;99.90;;;;;;5004551;28;20421;-77
2021/08/15 03:43:45;;;;;;;2.45;2.25;;;15.80;99.90;;;;;;4972100;28;20401;-75
2021/08/15 03:46:10;;;;;;;1.73;1.63;;;15.70;99.90;;;;;;5001522;28;20395;-79
2021/08/15 03:48:36;;;;;;;2.10;2.00;;;15.70;99.90;;;;;;5001440;28;20435;-76
2021/08/15 03:51:02;;;;;;;2.30;2.10;;;15.70;99.90;;;;;;4986152;28;20403;-75
2021/08/15 03:53:27;;;;;;;2.13;1.97;;;15.60;99.90;;;;;;4985952;28;20388;-76
2021/08/15 03:55:53;;;;;;;2.33;2.13;;;15.60;99.90;;;;;;4973247;28;20393;-78
2021/08/15 03:58:19;;;;;;;2.08;1.88;;;15.60;99.90;;;;;;4971593;28;20425;-76
2021/08/15 04:00:44;;;;;;;1.83;1.73;;;15.50;99.90;;;;;;4987610;28;20396;-76
2021/08/15 04:03:11;;;;;;;2.60;2.10;;;15.50;99.90;;;;;;4986809;28;21336;-76
2021/08/15 04:05:37;;;;;;;1.90;1.80;;;15.40;99.90;;;;;;4971515;28;20389;-76
2021/08/15 04:08:05;;;;;;;2.20;2.10;;;15.40;99.90;;;;;;4972201;28;20910;-76
2021/08/15 04:10:31;;;;;;;2.40;2.20;;;15.40;99.90;;;;;;4970828;28;20429;-76
2021/08/15 04:12:56;;;;;;;2.92;2.13;;;15.50;99.90;;;;;;4972815;28;20960;-77
2021/08/15 04:15:22;;;;;;;3.47;2.63;;;15.50;99.90;;;;;;5004483;28;20401;-76
2021/08/15 04:17:47;;;;;;;2.30;2.13;;;15.50;99.90;;;;;;4969223;28;20551;-77
2021/08/15 04:20:13;;;;;;;2.30;2.10;;;15.60;99.90;;;;;;4970545;28;20387;-75
2021/08/15 04:22:39;;;;;;;2.33;2.13;;;15.70;99.90;;;;;;4985744;28;20412;-76
2021/08/15 04:25:05;;;;;;;2.13;2.03;;;15.70;99.90;;;;;;4987700;28;20454;-76
2021/08/15 04:27:31;;;;;;;2.40;2.20;;;15.70;99.90;;;;;;4986718;28;20489;-76
2021/08/15 04:29:57;;;;;;;2.60;2.40;;;15.80;99.90;;;;;;4970673;28;20504;-75
2021/08/15 04:32:22;;;;;;;2.67;2.42;;;15.80;99.90;;;;;;4984997;28;20467;-76
2021/08/15 04:34:48;;;;;;;2.70;2.50;;;15.90;99.90;;;;;;4988697;28;20401;-75
2021/08/15 04:37:16;;;;;;;2.45;2.25;;;16.00;99.90;;;;;;5002150;28;20410;-75
2021/08/15 04:39:42;;;;;;;2.30;2.10;;;16.00;99.90;;;;;;4986744;28;20681;-75
2021/08/15 04:42:07;;;;;;;2.42;2.22;;;16.10;99.90;;;;;;4967042;28;20450;-75
2021/08/15 04:44:33;;;;;;;2.93;2.47;;;16.20;99.90;;;;;;5006197;28;20412;-75
2021/08/15 04:46:59;;;;;;;2.60;2.13;;;16.20;99.90;;;;;;4980861;28;20515;-76
2021/08/15 04:49:24;;;;;;;2.57;2.37;;;16.30;99.90;;;;;;5004216;28;20408;-75
2021/08/15 04:51:50;;;;;;;2.25;2.05;;;16.40;99.90;;;;;;4985533;28;20461;-76
2021/08/15 04:54:16;;;;;;;2.92;2.65;;;16.40;99.90;;;;;;4971140;28;20964;-76
2021/08/15 04:56:41;;;;;;;3.37;2.67;;;16.50;99.90;;;;;;4969462;28;20486;-76
2021/08/15 04:59:07;;;;;;;2.70;2.45;;;16.60;99.90;;;;;;5003086;28;20452;-77
2021/08/15 05:01:33;;;;;;;2.90;2.70;;;16.70;99.90;;;;;;4969127;28;20431;-75
2021/08/15 05:03:58;;;;;;;2.77;2.50;;;16.90;99.90;;;;;;4989325;28;20797;-75
2021/08/15 05:06:24;;;;;;;3.85;2.13;;;16.90;99.90;;;;;;4988601;28;20404;-77
2021/08/15 05:08:50;;;;;;;3.00;2.70;;;16.90;99.90;;;;;;4985405;28;20513;-75
2021/08/15 05:11:17;;;;;;;2.47;2.28;;;17.00;99.90;;;;;;4986618;28;20752;-80
2021/08/15 05:13:44;;;;;;;2.60;2.40;;;17.00;99.90;;;;;;5005549;28;20404;-75
2021/08/15 05:16:10;;;;;;;2.45;2.15;;;17.10;99.90;;;;;;5002301;28;20393;-76
2021/08/15 05:18:36;;;;;;;2.67;2.47;;;17.20;99.90;;;;;;5001470;28;20414;-75
2021/08/15 05:21:01;;;;;;;3.27;2.33;;;17.20;99.90;;;;;;4972974;28;20384;-76
2021/08/15 05:23:27;;;;;;;2.70;2.50;;;17.20;99.90;;;;;;4971965;28;20394;-75
2021/08/15 05:25:52;;;;;;;2.87;2.67;;;17.30;99.90;;;;;;4972244;28;20888;-76
2021/08/15 05:28:18;;;;;;;2.50;2.30;;;17.40;99.90;;;;;;4988791;28;20885;-77
2021/08/15 05:30:44;;;;;;;3.45;2.50;;;17.40;99.90;;;;;;4973108;28;20413;-75
2021/08/15 05:33:09;;;;;;;2.50;2.30;;;17.50;99.90;;;;;;4985404;28;20399;-76
2021/08/15 05:35:35;;;;;;;2.55;2.20;;;17.60;99.90;;;;;;4979603;28;20413;-76
2021/08/15 05:38:01;;;;;;;2.55;2.33;;;17.70;99.90;;;;;;4984534;28;20523;-77
2021/08/15 05:40:26;;;;;;;2.30;2.13;;;17.80;99.90;;;;;;4969728;28;20403;-77
2021/08/15 05:42:52;;;;;;;2.10;2.00;;;17.90;99.90;;;;;;4981617;28;20781;-77
2021/08/15 05:45:18;;;;;;;2.28;2.08;;;18.00;99.90;;;;;;4970022;28;20451;-75
2021/08/15 05:47:43;;;;;;;2.23;2.00;;;18.10;99.90;;;;;;4982175;28;20935;-76
2021/08/15 05:50:09;;;;;;;2.55;2.20;;;18.20;99.90;;;;;;4982587;28;20424;-76
2021/08/15 05:52:35;;;;;;;2.42;2.22;;;18.30;99.90;;;;;;4988595;28;20399;-77
2021/08/15 05:55:01;;;;;;;2.53;2.33;;;18.30;99.90;;;;;;4991798;28;20415;-78
2021/08/15 05:57:27;;;;;;;2.37;2.17;;;18.40;99.90;;;;;;5002879;28;20396;-76
2021/08/15 05:59:52;;;;;;;2.30;2.13;;;18.40;99.90;;;;;;4982399;28;21038;-76
2021/08/15 06:02:18;;;;;;;3.27;2.50;;;18.40;99.90;;;;;;5002635;28;20404;-76
2021/08/15 06:04:44;;;;;;;2.17;1.90;;;18.60;99.90;;;;;;4980944;28;20396;-76
2021/08/15 06:07:11;;;;;;;2.67;2.40;;;18.60;99.90;;;;;;4970023;28;20469;-77
2021/08/15 06:09:37;;;;;;;3.75;2.25;;;18.60;99.90;;;;;;4969002;28;20433;-76
2021/08/15 06:12:05;;;;;;;3.30;2.58;;;18.80;99.90;;;;;;4984789;28;20392;-76
2021/08/15 06:14:34;;;;;;;3.00;2.45;;;18.90;99.90;;;;;;5000963;28;20497;-75
2021/08/15 06:16:59;;;;;;;2.30;2.10;;;19.00;99.90;;;;;;4968230;28;20440;-76
2021/08/15 06:19:25;;;;;;;3.07;2.63;;;19.10;99.90;;;;;;4965799;28;20426;-78
2021/08/15 06:21:51;;;;;;;2.77;2.57;;;19.30;99.90;;;;;;4989033;28;20427;-76
2021/08/15 06:24:16;;;;;;;2.90;2.20;;;19.40;99.90;;;;;;4987664;28;20765;-76
2021/08/15 06:26:42;;;;;;;3.37;2.67;;;19.40;99.90;;;;;;4987078;28;20389;-77
2021/08/15 06:29:08;;;;;;;3.10;2.13;;;19.50;99.90;;;;;;4987612;28;20876;-76
2021/08/15 06:31:33;;;;;;;1.90;1.80;;;19.70;99.90;;;;;;4982676;28;20450;-76
2021/08/15 06:33:59;;;;;;;2.27;2.07;;;19.80;99.90;;;;;;5004198;28;20389;-76
2021/08/15 06:36:25;;;;;;;3.88;2.45;;;20.00;99.90;;;;;;5002782;28;20495;-77
2021/08/15 06:38:51;;;;;;;1.98;1.88;;;20.10;99.90;;;;;;4972094;28;20401;-77
2021/08/15 06:41:17;;;;;;;3.17;2.33;;;20.20;99.90;;;;;;4982476;28;20444;-76
2021/08/15 06:43:43;;;;;;;4.38;2.13;;;20.40;99.90;;;;;;4965578;28;20406;-76
2021/08/15 06:46:08;;;;;;;2.30;2.10;;;20.50;99.90;;;;;;4986582;28;20959;-76
2021/08/15 06:48:34;;;;;;;3.93;2.70;;;20.60;99.90;;;;;;5002965;28;20396;-76
2021/08/15 06:51:00;;;;;;;2.25;2.05;;;20.80;99.90;;;;;;4979181;28;20481;-76
2021/08/15 06:53:26;;;;;;;2.63;2.42;;;21.10;99.90;;;;;;4963961;28;20893;-76
2021/08/15 06:55:52;;;;;;;2.80;2.53;;;21.30;99.90;;;;;;4969863;28;20535;-76
2021/08/15 06:58:18;;;;;;;2.60;2.17;;;21.30;99.90;;;;;;4981516;28;20902;-76
2021/08/15 07:00:44;;;;;;;2.72;2.10;;;21.40;99.90;;;;;;4984776;28;20489;-77
2021/08/15 07:03:09;;;;;;;1.98;1.88;;;21.50;99.90;;;;;;4985696;28;20406;-77
2021/08/15 07:05:35;;;;;;;2.58;2.17;;;21.60;99.90;;;;;;5002540;28;20493;-75
2021/08/15 07:08:01;;;;;;;3.37;2.20;;;21.80;99.90;;;;;;4985321;28;20473;-76
2021/08/15 07:10:27;;;;;;;2.40;2.20;;;21.70;99.90;;;;;;4967871;28;20407;-76
2021/08/15 07:12:55;;;;;;;2.95;2.40;;;21.70;99.90;;;;;;4983369;28;20490;-76
2021/08/15 07:15:28;;;;;;;2.55;2.35;;;21.80;99.90;;;;;;4999740;28;20873;-77
2021/08/15 07:17:57;;;;;;;3.05;2.65;;;21.80;99.90;;;;;;4988011;28;20620;-76
2021/08/15 07:20:23;;;;;;;2.63;2.13;;;21.90;99.90;;;;;;4999958;28;20480;-77
2021/08/15 07:22:48;;;;;;;3.30;2.53;;;22.00;99.90;;;;;;5001885;28;20405;-76
2021/08/15 07:25:16;;;;;;;1.80;1.70;;;22.10;99.90;;;;;;4968514;28;20494;-77
2021/08/15 07:27:41;;;;;;;3.03;2.15;;;22.20;99.90;;;;;;4969135;28;20401;-76
2021/08/15 07:30:08;;;;;;;2.50;2.28;;;22.40;99.90;;;;;;4969143;28;20474;-75
2021/08/15 07:32:33;;;;;;;2.38;2.17;;;22.50;99.90;;;;;;5000659;28;20449;-75
2021/08/15 07:35:01;;;;;;;2.30;2.10;;;22.60;99.90;;;;;;4971694;28;20439;-75
2021/08/15 07:37:27;;;;;;;2.70;2.30;;;22.60;99.90;;;;;;4980595;28;20393;-76
2021/08/15 07:39:53;;;;;;;2.25;2.05;;;22.30;99.90;;;;;;4974175;28;20938;-76
2021/08/15 07:42:20;;;;;;;2.10;1.90;;;22.60;99.90;;;;;;4987187;28;20388;-76
2021/08/15 07:44:46;;;;;;;3.95;2.33;;;22.80;99.90;;;;;;4995033;28;20398;-76
2021/08/15 07:47:12;;;;;;;2.30;2.10;;;23.00;99.90;;;;;;4987753;28;20463;-75
2021/08/15 07:49:37;;;;;;;2.63;2.00;;;23.20;99.90;;;;;;4984182;28;20426;-76
2021/08/15 07:52:04;;;;;;;2.13;1.93;;;23.40;99.90;;;;;;4989445;28;20427;-77
2021/08/15 07:54:29;;;;;;;2.10;1.83;;;23.70;99.90;;;;;;5005095;28;20418;-77
2021/08/15 07:56:55;;;;;;;2.20;2.00;;;23.90;99.90;;;;;;5000871;28;20731;-76
2021/08/15 07:59:21;;;;;;;2.92;1.95;;;24.10;99.90;;;;;;4981249;28;20415;-75
2021/08/15 08:01:46;;;;;;;2.00;1.90;;;24.30;99.90;;;;;;4985604;28;20405;-75
2021/08/15 08:04:12;;;;;;;3.03;1.95;;;24.50;99.90;;;;;;5000928;28;20929;-76
2021/08/15 08:06:38;;;;;;;2.47;1.85;;;24.70;99.90;;;;;;5003174;28;20844;-77
2021/08/15 08:09:03;;;;;;;2.10;1.90;;;24.80;99.90;;;;;;4994443;28;20411;-77
2021/08/15 08:11:29;;;;;;;3.70;2.10;;;24.90;99.90;;;;;;4992715;28;20383;-76
2021/08/15 08:13:55;;;;;;;2.70;2.03;;;25.00;99.90;;;;;;5001763;28;20914;-76
2021/08/15 08:16:20;;;;;;;2.05;1.70;;;25.10;99.90;;;;;;4979129;28;20542;-76
2021/08/15 08:18:49;;;;;;;2.20;1.90;;;25.10;99.90;;;;;;4984911;28;20430;-77
2021/08/15 08:21:15;;;;;;;1.98;1.77;;;25.20;99.90;;;;;;5008654;28;20952;-76
2021/08/15 08:23:41;;;;;;;1.98;1.88;;;25.40;99.90;;;;;;4988621;28;20414;-76
2021/08/15 08:26:06;;;;;;;2.00;1.90;;;25.60;99.90;;;;;;4971194;28;20409;-77
2021/08/15 08:28:32;;;;;;;2.23;2.03;;;25.70;99.90;;;;;;4987677;28;20766;-75
2021/08/15 08:30:58;;;;;;;2.15;1.95;;;25.70;99.90;;;;;;4998389;28;20449;-75
2021/08/15 08:33:23;;;;;;;1.77;1.67;;;25.90;99.90;;;;;;4984802;28;20420;-76
2021/08/15 08:35:50;;;;;;;1.70;1.60;;;26.10;99.90;;;;;;4972812;28;20389;-76
2021/08/15 08:38:15;;;;;;;4.30;1.98;;;26.20;99.90;;;;;;4976066;28;20408;-76
2021/08/15 08:40:41;;;;;;;2.43;1.97;;;26.30;99.90;;;;;;4995385;28;20737;-76
2021/08/15 08:43:07;;;;;;;3.80;2.10;;;26.60;99.90;;;;;;4970775;28;20397;-76
2021/08/15 08:45:35;;;;;;;2.88;1.90;;;26.90;99.90;;;;;;4997011;28;20402;-76
2021/08/15 08:48:01;;;;;;;3.40;1.92;;;27.00;99.90;;;;;;4956403;28;20463;-76
2021/08/15 08:50:27;;;;;;;2.20;1.97;;;26.90;99.90;;;;;;4987113;28;20397;-75
2021/08/15 08:52:52;;;;;;;2.20;2.00;;;26.80;99.90;;;;;;4969624;28;21152;-76
2021/08/15 08:55:18;;;;;;;1.77;1.60;;;26.80;99.90;;;;;;5003545;28;20456;-75
2021/08/15 08:57:44;;;;;;;2.77;1.97;;;26.90;99.90;;;;;;4987064;28;20412;-76
2021/08/15 09:00:10;;;;;;;5.28;2.50;;;27.00;99.90;;;;;;4988864;28;20884;-75
2021/08/15 09:02:37;;;;;;;1.98;1.65;;;27.00;99.90;;;;;;4969905;28;20789;-76
2021/08/15 09:05:04;;;;;;;1.70;1.60;;;27.10;99.90;;;;;;4972156;28;20450;-76
2021/08/15 09:07:33;;;;;;;1.67;1.58;;;27.30;99.90;;;;;;4998077;28;20410;-76
2021/08/15 09:09:59;;;;;;;1.92;1.70;;;27.30;99.90;;;;;;4972483;28;20436;-76
2021/08/15 09:12:40;;;;;;;3.17;1.90;;;27.40;99.90;;;;;;4976968;28;20405;-76
2021/08/15 09:15:13;;;;;;;1.98;1.75;;;27.30;99.90;;;;;;4995538;28;20397;-76
2021/08/15 09:17:39;;;;;;;1.88;1.63;;;27.30;99.90;;;;;;4987264;28;20411;-76
2021/08/15 09:20:05;;;;;;;3.13;1.90;;;27.20;99.90;;;;;;5003490;28;20404;-77
2021/08/15 09:22:31;;;;;;;1.70;1.60;;;27.10;99.90;;;;;;4986184;28;20804;-76
2021/08/15 09:24:59;;;;;;;2.05;1.67;;;27.20;99.90;;;;;;4988033;28;20436;-76
2021/08/15 09:27:29;;;;;;;3.08;1.90;;;27.50;99.90;;;;;;4997904;28;20407;-76
2021/08/15 09:30:27;;;;;;;1.77;1.65;;;27.70;99.90;;;;;;4987177;28;20405;-76
2021/08/15 09:33:06;;;;;;;1.80;1.70;;;27.70;99.90;;;;;;4968781;28;20912;-76
2021/08/15 09:35:35;;;;;;;2.92;2.20;;;27.80;99.90;;;;;;5001736;28;20396;-76
2021/08/15 09:38:02;;;;;;;1.48;1.38;;;27.60;99.90;;;;;;5002141;28;20539;-76
2021/08/15 09:40:29;;;;;;;2.13;1.73;;;27.60;99.90;;;;;;5001606;28;20396;-76
2021/08/15 09:42:54;;;;;;;2.40;1.65;;;27.60;99.90;;;;;;5002673;28;20402;-75
2021/08/15 09:45:42;;;;;;;1.70;1.60;;;27.60;99.90;;;;;;4986693;28;20541;-77
2021/08/15 09:48:20;;;;;;;2.60;1.95;;;27.70;99.90;;;;;;4986741;28;20388;-76
2021/08/15 09:51:09;;;;;;;3.15;2.13;;;27.80;99.90;;;;;;5012200;28;20404;-76
2021/08/15 09:53:46;;;;;;;1.80;1.70;;;27.90;99.90;;;;;;4997314;28;20814;-75
2021/08/15 09:56:12;;;;;;;1.83;1.73;;;28.00;99.90;;;;;;4984917;28;20929;-75
2021/08/15 09:58:38;;;;;;;3.08;2.00;;;28.10;99.90;;;;;;4984645;28;20416;-76
2021/08/15 10:01:05;;;;;;;1.50;1.40;;;28.20;99.90;;;;;;4967449;28;20478;-76
2021/08/15 10:03:31;;;;;;;2.20;2.00;;;28.30;99.90;;;;;;4981798;28;20931;-75
2021/08/15 10:05:57;;;;;;;3.10;1.98;;;28.30;99.90;;;;;;4966270;28;20926;-76
2021/08/15 10:08:23;;;;;;;2.38;1.92;;;28.50;99.90;;;;;;4985131;28;20419;-76
2021/08/15 10:10:48;;;;;;;2.17;1.98;;;28.60;99.90;;;;;;4985703;28;20738;-76
2021/08/15 10:13:17;;;;;;;2.20;2.00;;;28.50;99.90;;;;;;4970215;28;20408;-76
2021/08/15 10:15:43;;;;;;;3.20;2.10;;;28.60;99.90;;;;;;5000054;28;20401;-76
2021/08/15 10:18:10;;;;;;;1.73;1.63;;;28.60;99.90;;;;;;4985583;28;20915;-76
2021/08/15 10:20:36;;;;;;;2.53;1.88;;;28.80;99.90;;;;;;4994258;28;20407;-77
2021/08/15 10:23:08;;;;;;;1.98;1.85;;;29.10;99.90;;;;;;4969027;28;20453;-76
2021/08/15 10:25:38;;;;;;;2.30;2.10;;;29.30;99.90;;;;;;4981420;28;20391;-76
2021/08/15 10:28:05;;;;;;;2.10;1.90;;;29.60;99.90;;;;;;5008247;28;20473;-76
2021/08/15 10:30:30;;;;;;;1.88;1.67;;;29.60;99.90;;;;;;4983672;28;21156;-76
2021/08/15 10:32:56;;;;;;;3.00;1.63;;;29.70;99.90;;;;;;4992522;28;20391;-77
2021/08/15 10:35:22;;;;;;;2.30;1.93;;;29.80;99.90;;;;;;5010300;28;20477;-77
2021/08/15 10:37:49;;;;;;;1.83;1.73;;;30.00;99.90;;;;;;4993004;28;20408;-76
2021/08/15 10:40:46;;;;;;;1.90;1.70;;;30.10;99.90;;;;;;4985697;28;20479;-77
2021/08/15 10:43:14;;;;;;;2.30;1.60;;;30.20;99.90;;;;;;4970992;28;20453;-76
2021/08/15 10:45:40;;;;;;;1.88;1.77;;;30.60;99.90;;;;;;4983054;28;20418;-75
2021/08/15 10:48:07;;;;;;;1.90;1.80;;;30.70;99.90;;;;;;4982950;28;20393;-76
2021/08/15 10:50:53;;;;;;;1.70;1.60;;;31.00;99.90;;;;;;4990273;28;20410;-75
2021/08/15 10:53:30;;;;;;;2.50;1.70;;;31.30;99.10;;;;;;5008249;28;20417;-76
2021/08/15 10:56:03;;;;;;;2.13;1.92;;;31.40;99.90;;;;;;4996849;28;20403;-75
2021/08/15 10:58:36;;;;;;;2.00;1.83;;;31.70;98.60;;;;;;4985253;28;20414;-76
2021/08/15 11:01:03;;;;;;;2.75;1.90;;;31.90;99.00;;;;;;4982612;28;20915;-76
2021/08/15 11:03:29;;;;;;;2.58;2.20;;;32.20;99.10;;;;;;4949805;28;20430;-76
2021/08/15 11:05:57;;;;;;;2.20;1.73;;;32.60;98.30;;;;;;4985328;28;20475;-76
2021/08/15 11:08:34;;;;;;;4.35;2.20;;;32.80;96.50;;;;;;5003269;28;20445;-76
2021/08/15 11:11:18;;;;;;;1.95;1.83;;;32.80;96.40;;;;;;5010750;28;20480;-75
2021/08/15 11:13:43;;;;;;;2.28;2.00;;;32.90;96.00;;;;;;4971152;28;20411;-75
2021/08/15 11:16:27;;;;;;;2.08;1.88;;;32.90;94.80;;;;;;4985701;28;20891;-75
2021/08/15 11:19:16;;;;;;;2.38;2.17;;;32.80;94.30;;;;;;4995713;28;20445;-75
2021/08/15 11:22:13;;;;;;;2.20;2.00;;;33.00;95.00;;;;;;5013040;28;20392;-75
2021/08/15 11:24:45;;;;;;;2.15;1.73;;;33.10;93.20;;;;;;4992480;28;20408;-74
2021/08/15 11:27:10;;;;;;;4.25;1.88;;;33.30;96.20;;;;;;5011522;28;20398;-75
2021/08/15 11:29:37;;;;;;;2.30;2.10;;;33.30;90.70;;;;;;4997042;28;20998;-76
2021/08/15 11:32:03;;;;;;;1.95;1.75;;;33.10;91.40;;;;;;4984845;28;20461;-75
2021/08/15 11:34:28;;;;;;;1.90;1.80;;;33.30;92.10;;;;;;5002629;28;20806;-76
2021/08/15 11:36:59;;;;;;;3.20;2.00;;;33.40;92.30;;;;;;5002889;28;20381;-76
2021/08/15 11:39:38;;;;;;;1.88;1.70;;;33.40;93.10;;;;;;4985772;28;21685;-75
2021/08/15 11:42:14;;;;;;;4.75;2.15;;;33.50;92.00;;;;;;5012476;28;21947;-76
2021/08/15 11:44:58;;;;;;;2.10;1.90;;;33.40;92.00;;;;;;5003264;28;20407;-76
2021/08/15 11:47:27;;;;;;;2.00;1.90;;;33.60;90.70;;;;;;4985270;28;21308;-75
2021/08/15 11:49:54;;;;;;;1.93;1.80;;;33.70;90.70;;;;;;5011915;28;20410;-75
2021/08/15 11:52:24;;;;;;;2.38;1.95;;;33.60;88.40;;;;;;4969584;28;20404;-76
2021/08/15 11:54:51;;;;;;;2.65;1.55;;;33.30;86.30;;;;;;5000867;28;21233;-75
2021/08/15 11:57:17;;;;;;;2.00;1.80;;;33.20;90.40;;;;;;4985007;28;20449;-75
2021/08/15 11:59:48;;;;;;;1.77;1.67;;;33.30;92.20;;;;;;4986781;28;20769;-75
2021/08/15 12:02:20;;;;;;;2.05;1.85;;;33.10;86.70;;;;;;5000981;28;20439;-75
2021/08/15 12:04:48;;;;;;;1.60;1.50;;;33.20;88.80;;;;;;5014343;28;20510;-75
2021/08/15 12:07:25;;;;;;;2.50;1.97;;;33.40;89.70;;;;;;4993768;28;20474;-75
2021/08/15 12:10:22;;;;;;;1.85;1.67;;;33.60;87.10;;;;;;4985720;28;20446;-75
2021/08/15 12:13:17;;;;;;;1.80;1.70;;;33.60;82.10;;;;;;5007941;28;20411;-75
2021/08/15 12:15:46;;;;;;;1.60;1.50;;;33.40;89.20;;;;;;4985666;28;20401;-75
2021/08/15 12:18:29;;;;;;;2.10;1.60;;;33.30;83.90;;;;;;4983291;28;20773;-76
2021/08/15 12:20:56;;;;;;;2.13;1.90;;;33.00;85.30;;;;;;5001316;28;20426;-75
2021/08/15 12:23:22;;;;;;;2.05;1.80;;;32.90;87.90;;;;;;4999872;28;21325;-75
2021/08/15 12:26:07;;;;;;;1.85;1.52;;;33.10;84.30;;;;;;4993315;28;20402;-75
2021/08/15 12:28:37;;;;;;;1.65;1.55;;;33.10;85.20;;;;;;5000527;28;20419;-75
2021/08/15 12:31:17;;;;;;;1.70;1.60;;;32.90;82.60;;;;;;5003646;28;20401;-75
2021/08/15 12:33:43;;;;;;;1.83;1.73;;;33.20;87.60;;;;;;5001464;28;20467;-76
2021/08/15 12:36:18;;;;;;;2.20;1.90;;;33.30;84.20;;;;;;5000855;28;20410;-75
2021/08/15 12:38:44;;;;;;;1.65;1.52;;;33.40;82.50;;;;;;4995171;28;20444;-75
2021/08/15 12:41:29;;;;;;;1.97;1.73;;;33.50;83.20;;;;;;4988516;28;20434;-76
2021/08/15 12:44:08;;;;;;;1.70;1.60;;;33.70;84.70;;;;;;5011614;28;20527;-75
2021/08/15 12:46:34;;;;;;;2.10;1.58;;;33.90;80.50;;;;;;4998596;28;20897;-76
2021/08/15 12:49:14;;;;;;;1.70;1.60;;;33.80;77.50;;;;;;4984739;28;20426;-76
2021/08/15 12:51:39;;;;;;;1.83;1.73;;;33.90;82.90;;;;;;4967938;28;21004;-76